createdAt,value
2019-05-05T00:00:41.790Z,1005.09
2019-05-05T00:01:44.918Z,1005.12
2019-05-05T00:02:44.808Z,1005.15
2019-05-05T00:03:45.914Z,1005.13
2019-05-05T00:04:47.296Z,1005.11
2019-05-05T00:05:48.724Z,1005.16
2019-05-05T00:06:50.097Z,1005.17
2019-05-05T00:07:51.491Z,1005.18
2019-05-05T00:08:54.641Z,1005.21
2019-05-05T00:09:55.124Z,1005.15
2019-05-05T00:10:56.981Z,1005.17
2019-05-05T00:11:56.935Z,1005.18
2019-05-05T00:12:58.321Z,1005.23
2019-05-05T00:13:59.739Z,1005.21
2019-05-05T00:15:01.133Z,1005.21
2019-05-05T00:16:04.501Z,1005.24
2019-05-05T00:17:05.236Z,1005.28
2019-05-05T00:18:05.413Z,1005.27
2019-05-05T00:19:06.562Z,1005.29
2019-05-05T00:20:07.943Z,1005.32
2019-05-05T00:21:09.321Z,1005.33
2019-05-05T00:22:10.703Z,1005.35
2019-05-05T00:23:12.135Z,1005.35
2019-05-05T00:24:15.065Z,1005.36
2019-05-05T00:25:14.872Z,1005.39
2019-05-05T00:26:16.247Z,1005.38
2019-05-05T00:27:17.669Z,1005.44
2019-05-05T00:28:19.062Z,1005.39
2019-05-05T00:29:20.450Z,1005.42
2019-05-05T00:30:21.830Z,1005.46
2019-05-05T00:31:24.240Z,1005.44
2019-05-05T00:32:24.635Z,1005.44
2019-05-05T00:33:25.898Z,1005.40
2019-05-05T00:34:27.278Z,1005.45
2019-05-05T00:35:28.692Z,1005.45
2019-05-05T00:36:30.072Z,1005.49
2019-05-05T00:37:31.461Z,1005.49
2019-05-05T00:38:34.630Z,1005.47
2019-05-05T00:39:34.511Z,1005.48
2019-05-05T00:40:35.635Z,1005.50
2019-05-05T00:41:37.020Z,1005.48
2019-05-05T00:42:38.403Z,1005.51
2019-05-05T00:43:39.786Z,1005.49
2019-05-05T00:44:41.173Z,1005.54
2019-05-05T00:45:42.549Z,1005.53
2019-05-05T00:46:44.686Z,1005.50
2019-05-05T00:47:45.280Z,1005.51
2019-05-05T00:48:46.668Z,1005.53
2019-05-05T00:49:49.437Z,1005.58
2019-05-05T00:50:51.707Z,1005.53
2019-05-05T00:51:50.752Z,1005.56
2019-05-05T00:52:52.145Z,1005.54
2019-05-05T00:53:55.321Z,1005.59
2019-05-05T00:54:55.594Z,1005.59
2019-05-05T00:55:56.212Z,1005.57
2019-05-05T00:56:57.602Z,1005.57
2019-05-05T00:57:58.987Z,1005.55
2019-05-05T00:59:00.364Z,1005.60
2019-05-05T01:00:01.744Z,1005.61
2019-05-05T01:01:05.196Z,1005.62
2019-05-05T01:02:04.622Z,1005.59
2019-05-05T01:03:05.834Z,1005.59
2019-05-05T01:04:07.222Z,1005.59
2019-05-05T01:05:08.605Z,1005.60
2019-05-05T01:06:09.986Z,1005.58
2019-05-05T01:07:11.372Z,1005.58
2019-05-05T01:08:13.973Z,1005.60
2019-05-05T01:09:14.848Z,1005.58
2019-05-05T01:10:15.498Z,1005.58
2019-05-05T01:11:16.869Z,1005.60
2019-05-05T01:12:18.256Z,1005.61
2019-05-05T01:13:19.677Z,1005.67
2019-05-05T01:14:21.067Z,1005.63
2019-05-05T01:15:22.447Z,1005.64
2019-05-05T01:16:24.783Z,1005.68
2019-05-05T01:17:25.394Z,1005.70
2019-05-05T01:18:26.555Z,1005.66
2019-05-05T01:19:27.935Z,1005.67
2019-05-05T01:20:29.320Z,1005.71
2019-05-05T01:21:30.698Z,1005.70
2019-05-05T01:22:34.091Z,1005.70
2019-05-05T01:23:34.801Z,1005.70
2019-05-05T01:24:34.772Z,1005.73
2019-05-05T01:25:36.156Z,1005.71
2019-05-05T01:26:37.538Z,1005.70
2019-05-05T01:27:38.915Z,1005.76
2019-05-05T01:28:40.300Z,1005.73
2019-05-05T01:29:41.694Z,1005.77
2019-05-05T01:30:44.419Z,1005.75
2019-05-05T01:31:45.220Z,1005.77
2019-05-05T01:32:45.774Z,1005.76
2019-05-05T01:33:47.150Z,1005.77
2019-05-05T01:34:48.577Z,1005.78
2019-05-05T01:35:49.955Z,1005.79
2019-05-05T01:36:51.340Z,1005.76
2019-05-05T01:37:54.394Z,1005.77
2019-05-05T01:38:55.257Z,1005.83
2019-05-05T01:39:55.417Z,1005.79
2019-05-05T01:40:56.801Z,1005.80
2019-05-05T01:41:58.190Z,1005.79
2019-05-05T01:42:59.593Z,1005.78
2019-05-05T01:44:00.977Z,1005.83
2019-05-05T01:45:04.391Z,1005.82
2019-05-05T01:46:05.068Z,1005.83
2019-05-05T01:47:05.318Z,1005.84
2019-05-05T01:48:06.418Z,1005.83
2019-05-05T01:49:07.804Z,1005.85
2019-05-05T01:50:18.448Z,1005.85
2019-05-05T01:51:10.574Z,1005.86
2019-05-05T01:52:11.958Z,1005.88
2019-05-05T01:53:15.102Z,1005.89
2019-05-05T01:54:14.688Z,1005.89
2019-05-05T01:55:16.082Z,1005.91
2019-05-05T01:56:17.454Z,1005.89
2019-05-05T01:57:18.837Z,1005.91
2019-05-05T01:58:20.218Z,1005.88
2019-05-05T01:59:21.600Z,1005.89
2019-05-05T02:00:25.219Z,1005.88
2019-05-05T02:01:24.627Z,1005.87
2019-05-05T02:02:25.674Z,1005.88
2019-05-05T02:03:27.069Z,1005.87
2019-05-05T02:04:28.453Z,1005.90
2019-05-05T02:05:29.833Z,1005.88
2019-05-05T02:06:31.217Z,1005.94
2019-05-05T02:07:34.132Z,1005.93
2019-05-05T02:08:34.851Z,1005.93
2019-05-05T02:09:35.516Z,1005.93
2019-05-05T02:10:36.649Z,1005.90
2019-05-05T02:11:38.032Z,1005.92
2019-05-05T02:12:39.408Z,1005.93
2019-05-05T02:13:40.795Z,1005.93
2019-05-05T02:14:43.909Z,1005.95
2019-05-05T02:15:44.554Z,1005.94
2019-05-05T02:16:45.188Z,1005.96
2019-05-05T02:17:46.203Z,1005.96
2019-05-05T02:18:47.588Z,1006.00
2019-05-05T02:19:48.964Z,1006.01
2019-05-05T02:20:50.352Z,1006.04
2019-05-05T02:21:51.728Z,1006.07
2019-05-05T02:22:54.739Z,1006.09
2019-05-05T02:23:54.784Z,1006.15
2019-05-05T02:24:55.811Z,1006.12
2019-05-05T02:25:57.196Z,1006.12
2019-05-05T02:26:58.581Z,1006.15
2019-05-05T02:27:59.994Z,1006.18
2019-05-05T02:29:01.374Z,1006.16
2019-05-05T02:30:05.741Z,1006.20
2019-05-05T02:31:05.581Z,1006.19
2019-05-05T02:32:06.309Z,1006.21
2019-05-05T02:33:06.804Z,1006.19
2019-05-05T02:34:08.186Z,1006.22
2019-05-05T02:35:09.571Z,1006.23
2019-05-05T02:36:10.954Z,1006.22
2019-05-05T02:37:12.330Z,1006.30
2019-05-05T02:38:15.685Z,1006.25
2019-05-05T02:39:15.959Z,1006.28
2019-05-05T02:40:16.438Z,1006.29
2019-05-05T02:41:17.819Z,1006.27
2019-05-05T02:42:19.202Z,1006.28
2019-05-05T02:43:20.584Z,1006.30
2019-05-05T02:44:21.979Z,1006.28
2019-05-05T02:45:24.933Z,1006.28
2019-05-05T02:46:25.390Z,1006.26
2019-05-05T02:47:26.047Z,1006.28
2019-05-05T02:48:27.453Z,1006.23
2019-05-05T02:49:28.832Z,1006.24
2019-05-05T02:50:46.664Z,1006.32
2019-05-05T02:51:31.567Z,1006.28
2019-05-05T02:52:34.728Z,1006.31
2019-05-05T02:53:34.309Z,1006.30
2019-05-05T02:54:35.688Z,1006.26
2019-05-05T02:55:37.066Z,1006.27
2019-05-05T02:56:38.449Z,1006.28
2019-05-05T02:57:39.823Z,1006.31
2019-05-05T02:58:41.206Z,1006.29
2019-05-05T02:59:43.502Z,1006.29
2019-05-05T03:00:43.929Z,1006.30
2019-05-05T03:01:45.320Z,1006.30
2019-05-05T03:02:46.693Z,1006.28
2019-05-05T03:03:48.077Z,1006.31
2019-05-05T03:04:49.459Z,1006.35
2019-05-05T03:05:50.881Z,1006.36
2019-05-05T03:06:54.047Z,1006.41
2019-05-05T03:07:54.346Z,1006.42
2019-05-05T03:08:54.938Z,1006.47
2019-05-05T03:09:56.323Z,1006.46
2019-05-05T03:10:57.706Z,1006.49
2019-05-05T03:11:59.095Z,1006.46
2019-05-05T03:13:00.485Z,1006.48
2019-05-05T03:14:03.949Z,1006.50
2019-05-05T03:15:04.155Z,1006.50
2019-05-05T03:16:04.566Z,1006.50
2019-05-05T03:17:05.948Z,1006.58
2019-05-05T03:18:07.332Z,1006.53
2019-05-05T03:19:08.726Z,1006.58
2019-05-05T03:20:10.110Z,1006.53
2019-05-05T03:21:13.888Z,1006.53
2019-05-05T03:22:14.157Z,1006.59
2019-05-05T03:23:14.186Z,1006.59
2019-05-05T03:24:15.594Z,1006.61
2019-05-05T03:25:16.982Z,1006.63
2019-05-05T03:26:18.365Z,1006.67
2019-05-05T03:27:19.750Z,1006.68
2019-05-05T03:28:21.132Z,1006.69
2019-05-05T03:29:24.183Z,1006.69
2019-05-05T03:30:26.142Z,1006.73
2019-05-05T03:31:26.150Z,1006.71
2019-05-05T03:32:26.575Z,1006.71
2019-05-05T03:33:27.955Z,1006.74
2019-05-05T03:34:29.336Z,1006.76
2019-05-05T03:35:30.719Z,1006.76
2019-05-05T03:36:33.797Z,1006.80
2019-05-05T03:37:34.393Z,1006.80
2019-05-05T03:38:34.805Z,1006.82
2019-05-05T03:39:36.183Z,1006.86
2019-05-05T03:40:37.567Z,1006.83
2019-05-05T03:41:38.965Z,1006.81
2019-05-05T03:42:40.346Z,1006.86
2019-05-05T03:43:43.413Z,1006.89
2019-05-05T03:44:44.048Z,1006.90
2019-05-05T03:45:44.498Z,1006.89
2019-05-05T03:46:45.771Z,1006.91
2019-05-05T03:47:47.161Z,1006.91
2019-05-05T03:48:48.548Z,1006.96
2019-05-05T03:49:49.974Z,1006.97
2019-05-05T03:50:51.360Z,1006.93
2019-05-05T03:51:54.269Z,1007.00
2019-05-05T03:52:54.419Z,1007.00
2019-05-05T03:53:55.440Z,1007.01
2019-05-05T03:54:56.828Z,1007.03
2019-05-05T03:55:58.208Z,1007.07
2019-05-05T03:56:59.597Z,1007.09
2019-05-05T03:58:01.023Z,1007.10
2019-05-05T03:59:02.403Z,1007.10
2019-05-05T04:00:04.354Z,1007.12
2019-05-05T04:01:05.145Z,1007.15
2019-05-05T04:02:06.535Z,1007.17
2019-05-05T04:03:07.925Z,1007.17
2019-05-05T04:04:09.302Z,1007.17
2019-05-05T04:05:10.713Z,1007.13
2019-05-05T04:06:12.109Z,1007.21
2019-05-05T04:07:13.972Z,1007.21
2019-05-05T04:08:14.854Z,1007.25
2019-05-05T04:09:16.239Z,1007.23
2019-05-05T04:10:17.648Z,1007.26
2019-05-05T04:11:19.037Z,1007.26
2019-05-05T04:12:20.427Z,1007.26
2019-05-05T04:13:21.809Z,1007.32
2019-05-05T04:14:24.702Z,1007.32
2019-05-05T04:15:24.588Z,1007.32
2019-05-05T04:16:25.948Z,1007.33
2019-05-05T04:17:27.330Z,1007.33
2019-05-05T04:18:28.751Z,1007.36
2019-05-05T04:19:30.132Z,1007.39
2019-05-05T04:20:33.566Z,1007.35
2019-05-05T04:21:36.026Z,1007.40
2019-05-05T04:22:34.301Z,1007.41
2019-05-05T04:23:35.558Z,1007.42
2019-05-05T04:24:36.952Z,1007.46
2019-05-05T04:25:38.338Z,1007.47
2019-05-05T04:26:39.718Z,1007.49
2019-05-05T04:27:41.107Z,1007.45
2019-05-05T04:28:43.610Z,1007.45
2019-05-05T04:29:44.090Z,1007.51
2019-05-05T04:30:45.199Z,1007.47
2019-05-05T04:31:46.588Z,1007.43
2019-05-05T04:32:48.016Z,1007.46
2019-05-05T04:33:49.406Z,1007.45
2019-05-05T04:34:50.793Z,1007.44
2019-05-05T04:35:54.374Z,1007.49
2019-05-05T04:36:54.672Z,1007.48
2019-05-05T04:37:54.873Z,1007.51
2019-05-05T04:38:56.261Z,1007.52
2019-05-05T04:39:57.645Z,1007.59
2019-05-05T04:40:59.031Z,1007.52
2019-05-05T04:42:00.416Z,1007.57
2019-05-05T04:43:03.654Z,1007.56
2019-05-05T04:44:03.998Z,1007.54
2019-05-05T04:45:04.525Z,1007.58
2019-05-05T04:46:05.916Z,1007.55
2019-05-05T04:47:07.302Z,1007.59
2019-05-05T04:48:08.684Z,1007.60
2019-05-05T04:49:10.073Z,1007.59
2019-05-05T04:50:11.459Z,1007.60
2019-05-05T04:51:13.918Z,1007.62
2019-05-05T04:52:14.377Z,1007.64
2019-05-05T04:53:15.549Z,1007.69
2019-05-05T04:54:16.932Z,1007.67
2019-05-05T04:55:18.320Z,1007.73
2019-05-05T04:56:19.709Z,1007.73
2019-05-05T04:57:21.095Z,1007.76
2019-05-05T04:58:24.140Z,1007.72
2019-05-05T04:59:23.832Z,1007.75
2019-05-05T05:00:25.221Z,1007.72
2019-05-05T05:01:26.609Z,1007.73
2019-05-05T05:02:28.005Z,1007.75
2019-05-05T05:03:29.398Z,1007.73
2019-05-05T05:04:30.791Z,1007.77
2019-05-05T05:05:33.629Z,1007.79
2019-05-05T05:06:34.180Z,1007.79
2019-05-05T05:07:34.860Z,1007.81
2019-05-05T05:08:36.253Z,1007.80
2019-05-05T05:09:37.827Z,1007.83
2019-05-05T05:10:39.217Z,1007.85
2019-05-05T05:11:40.640Z,1007.88
2019-05-05T05:12:43.449Z,1007.88
2019-05-05T05:13:44.024Z,1007.92
2019-05-05T05:14:44.725Z,1007.96
2019-05-05T05:15:46.122Z,1008.00
2019-05-05T05:16:47.511Z,1007.98
2019-05-05T05:17:48.903Z,1007.93
2019-05-05T05:18:50.291Z,1007.96
2019-05-05T05:19:51.674Z,1007.98
2019-05-05T05:20:54.632Z,1007.97
2019-05-05T05:22:01.667Z,1007.92
2019-05-05T05:22:55.769Z,1007.96
2019-05-05T05:23:57.151Z,1007.90
2019-05-05T05:24:58.541Z,1007.88
2019-05-05T05:25:59.933Z,1007.93
2019-05-05T05:27:01.317Z,1007.93
2019-05-05T05:28:04.131Z,1007.96
2019-05-05T05:29:04.564Z,1007.96
2019-05-05T05:30:05.412Z,1008.03
2019-05-05T05:31:06.793Z,1008.05
2019-05-05T05:32:08.185Z,1008.07
2019-05-05T05:33:09.570Z,1008.04
2019-05-05T05:34:10.963Z,1008.11
2019-05-05T05:35:13.918Z,1008.09
2019-05-05T05:36:14.378Z,1008.14
2019-05-05T05:37:15.069Z,1008.11
2019-05-05T05:38:16.454Z,1008.11
2019-05-05T05:39:17.852Z,1008.01
2019-05-05T05:40:19.233Z,1008.03
2019-05-05T05:41:20.624Z,1008.00
2019-05-05T05:42:24.070Z,1008.01
2019-05-05T05:43:25.242Z,1008.00
2019-05-05T05:44:27.675Z,1008.01
2019-05-05T05:45:26.083Z,1007.99
2019-05-05T05:46:27.464Z,1008.00
2019-05-05T05:47:28.868Z,1008.02
2019-05-05T05:48:30.260Z,1008.01
2019-05-05T05:49:31.658Z,1008.01
2019-05-05T05:50:33.910Z,1008.00
2019-05-05T05:51:35.276Z,1008.05
2019-05-05T05:52:36.674Z,1008.11
2019-05-05T05:53:38.057Z,1008.08
2019-05-05T05:54:39.443Z,1008.13
2019-05-05T05:55:40.861Z,1008.12
2019-05-05T05:56:42.249Z,1008.13
2019-05-05T05:57:43.928Z,1008.12
2019-05-05T05:58:44.999Z,1008.13
2019-05-05T05:59:46.419Z,1008.15
2019-05-05T06:00:47.803Z,1008.15
2019-05-05T06:01:49.184Z,1008.16
2019-05-05T06:02:50.575Z,1008.26
2019-05-05T06:03:53.506Z,1008.27
2019-05-05T06:04:53.978Z,1008.29
2019-05-05T06:05:54.679Z,1008.31
2019-05-05T06:06:56.076Z,1008.34
2019-05-05T06:07:58.188Z,1008.38
2019-05-05T06:08:59.618Z,1008.36
2019-05-05T06:10:01.002Z,1008.40
2019-05-05T06:11:04.276Z,1008.38
2019-05-05T06:12:03.749Z,1008.43
2019-05-05T06:13:05.143Z,1008.37
2019-05-05T06:14:06.529Z,1008.36
2019-05-05T06:15:07.920Z,1008.40
2019-05-05T06:16:09.318Z,1008.40
2019-05-05T06:17:10.700Z,1008.43
2019-05-05T06:18:13.626Z,1008.38
2019-05-05T06:19:14.065Z,1008.41
2019-05-05T06:20:14.844Z,1008.42
2019-05-05T06:21:16.284Z,1008.47
2019-05-05T06:22:28.136Z,1008.51
2019-05-05T06:23:18.977Z,1008.61
2019-05-05T06:24:20.364Z,1008.72
2019-05-05T06:25:21.762Z,1008.85
2019-05-05T06:26:24.041Z,1008.82
2019-05-05T06:27:24.527Z,1008.83
2019-05-05T06:28:25.923Z,1008.87
2019-05-05T06:29:27.970Z,1008.90
2019-05-05T06:30:28.679Z,1008.89
2019-05-05T06:31:30.084Z,1008.81
2019-05-05T06:32:31.484Z,1008.86
2019-05-05T06:33:34.546Z,1008.84
2019-05-05T06:34:34.248Z,1008.84
2019-05-05T06:35:35.649Z,1008.84
2019-05-05T06:36:37.051Z,1008.84
2019-05-05T06:37:38.455Z,1008.82
2019-05-05T06:38:39.862Z,1008.85
2019-05-05T06:39:41.272Z,1008.89
2019-05-05T06:40:44.267Z,1008.89
2019-05-05T06:41:44.048Z,1008.89
2019-05-05T06:42:45.452Z,1008.85
2019-05-05T06:43:46.861Z,1008.90
2019-05-05T06:44:48.269Z,1008.91
2019-05-05T06:45:49.671Z,1008.88
2019-05-05T06:46:51.092Z,1008.90
2019-05-05T06:47:53.689Z,1008.92
2019-05-05T06:48:53.966Z,1008.90
2019-05-05T06:49:55.247Z,1008.97
2019-05-05T06:50:56.653Z,1008.91
2019-05-05T06:51:58.061Z,1008.90
2019-05-05T06:52:59.475Z,1008.94
2019-05-05T06:54:00.875Z,1008.94
2019-05-05T06:55:03.647Z,1008.95
2019-05-05T06:56:04.111Z,1008.98
2019-05-05T06:57:05.033Z,1009.00
2019-05-05T06:58:06.451Z,1009.04
2019-05-05T06:59:07.861Z,1009.05
2019-05-05T07:00:09.286Z,1009.06
2019-05-05T07:01:10.694Z,1009.10
2019-05-05T07:02:12.105Z,1009.13
2019-05-05T07:03:13.890Z,1009.14
2019-05-05T07:04:14.880Z,1009.17
2019-05-05T07:05:16.288Z,1009.15
2019-05-05T07:06:17.698Z,1009.13
2019-05-05T07:07:19.118Z,1009.13
2019-05-05T07:08:20.531Z,1009.18
2019-05-05T07:09:23.931Z,1009.17
2019-05-05T07:10:24.466Z,1009.18
2019-05-05T07:11:24.723Z,1009.20
2019-05-05T07:12:26.115Z,1008.79
2019-05-05T07:13:27.538Z,1009.30
2019-05-05T07:14:28.959Z,1009.34
2019-05-05T07:15:30.377Z,1009.35
2019-05-05T07:16:31.791Z,1009.35
2019-05-05T07:17:33.858Z,1008.90
2019-05-05T07:18:34.577Z,1008.90
2019-05-05T07:19:35.987Z,1008.86
2019-05-05T07:20:37.403Z,1008.90
2019-05-05T07:21:38.813Z,1008.88
2019-05-05T07:22:40.219Z,1008.87
2019-05-05T07:23:41.629Z,1008.86
2019-05-05T07:24:43.641Z,1008.91
2019-05-05T07:25:46.057Z,1008.93
2019-05-05T07:26:45.780Z,1008.85
2019-05-05T07:27:47.192Z,1008.89
2019-05-05T07:28:48.597Z,1008.88
2019-05-05T07:29:50.002Z,1008.90
2019-05-05T07:30:51.446Z,1008.94
2019-05-05T07:31:54.365Z,1008.96
2019-05-05T07:32:54.154Z,1008.94
2019-05-05T07:33:55.568Z,1008.93
2019-05-05T07:34:56.968Z,1008.94
2019-05-05T07:36:02.948Z,1008.94
2019-05-05T07:36:59.750Z,1009.24
2019-05-05T07:38:01.160Z,1009.00
2019-05-05T07:39:03.816Z,1009.31
2019-05-05T07:40:04.212Z,1009.32
2019-05-05T07:41:05.310Z,1009.43
2019-05-05T07:42:06.721Z,1009.44
2019-05-05T07:43:08.127Z,1009.15
2019-05-05T07:44:22.295Z,1009.20
2019-05-05T07:45:21.174Z,1009.02
2019-05-05T07:46:13.526Z,1009.07
2019-05-05T07:47:14.583Z,1009.30
2019-05-05T07:48:15.017Z,1009.02
2019-05-05T07:49:16.436Z,1009.03
2019-05-05T07:50:28.551Z,1009.36
2019-05-05T07:51:19.215Z,1009.34
2019-05-05T07:52:20.633Z,1008.87
2019-05-05T07:53:24.331Z,1008.87
2019-05-05T07:54:23.645Z,1008.83
2019-05-05T07:55:24.771Z,1008.87
2019-05-05T07:56:26.182Z,1008.85
2019-05-05T07:57:27.592Z,1008.87
2019-05-05T07:58:29.005Z,1008.92
2019-05-05T07:59:30.408Z,1008.92
2019-05-05T08:00:31.828Z,1008.96
2019-05-05T08:01:33.871Z,1008.93
2019-05-05T08:02:34.633Z,1008.92
2019-05-05T08:03:36.050Z,1008.93
2019-05-05T08:04:37.448Z,1008.98
2019-05-05T08:05:38.867Z,1008.91
2019-05-05T08:06:40.275Z,1008.99
2019-05-05T08:07:41.679Z,1008.99
2019-05-05T08:08:44.296Z,1009.00
2019-05-05T08:09:44.654Z,1009.01
2019-05-05T08:10:45.846Z,1009.02
2019-05-05T08:11:47.237Z,1009.02
2019-05-05T08:12:48.636Z,1009.02
2019-05-05T08:13:50.038Z,1009.02
2019-05-05T08:14:53.588Z,1008.97
2019-05-05T08:15:59.095Z,1008.99
2019-05-05T08:16:54.181Z,1009.01
2019-05-05T08:17:55.575Z,1008.99
2019-05-05T08:18:56.981Z,1009.04
2019-05-05T08:19:58.385Z,1009.01
2019-05-05T08:20:59.784Z,1009.09
2019-05-05T08:22:01.179Z,1009.29
2019-05-05T08:23:04.141Z,1009.19
2019-05-05T08:24:04.657Z,1009.36
2019-05-05T08:25:05.304Z,1009.46
2019-05-05T08:26:06.716Z,1009.31
2019-05-05T08:27:08.125Z,1009.22
2019-05-05T08:28:09.529Z,1009.07
2019-05-05T08:29:10.964Z,1009.05
2019-05-05T08:30:13.983Z,1008.98
2019-05-05T08:31:14.490Z,1009.01
2019-05-05T08:32:15.110Z,1009.06
2019-05-05T08:33:16.509Z,1009.06
2019-05-05T08:34:17.927Z,1009.08
2019-05-05T08:35:19.320Z,1009.10
2019-05-05T08:36:23.445Z,1009.14
2019-05-05T08:37:23.657Z,1009.15
2019-05-05T08:38:24.354Z,1009.18
2019-05-05T08:39:25.575Z,1009.23
2019-05-05T08:40:26.973Z,1009.22
2019-05-05T08:41:28.383Z,1009.24
2019-05-05T08:42:29.779Z,1009.24
2019-05-05T08:43:31.186Z,1009.25
2019-05-05T08:44:34.150Z,1009.26
2019-05-05T08:45:34.902Z,1009.39
2019-05-05T08:46:35.325Z,1009.32
2019-05-05T08:47:36.731Z,1009.33
2019-05-05T08:48:38.137Z,1009.30
2019-05-05T08:49:39.542Z,1009.63
2019-05-05T08:50:40.946Z,1009.63
2019-05-05T08:51:44.103Z,1009.45
2019-05-05T08:52:44.442Z,1009.60
2019-05-05T08:53:48.026Z,1009.61
2019-05-05T08:54:46.442Z,1009.62
2019-05-05T08:55:47.854Z,1009.64
2019-05-05T08:56:49.262Z,1009.68
2019-05-05T08:57:50.663Z,1009.56
2019-05-05T08:58:54.356Z,1009.43
2019-05-05T08:59:54.486Z,1009.34
2019-05-05T09:00:54.810Z,1009.34
2019-05-05T09:01:56.214Z,1009.34
2019-05-05T09:02:57.632Z,1009.31
2019-05-05T09:03:59.041Z,1009.31
2019-05-05T09:05:00.456Z,1009.29
2019-05-05T09:06:01.864Z,1009.25
2019-05-05T09:07:04.788Z,1009.30
2019-05-05T09:08:04.770Z,1009.23
2019-05-05T09:09:06.011Z,1009.29
2019-05-05T09:10:07.417Z,1009.20
2019-05-05T09:11:08.823Z,1009.20
2019-05-05T09:12:10.231Z,1009.19
2019-05-05T09:13:11.640Z,1009.19
2019-05-05T09:14:14.692Z,1009.18
2019-05-05T09:15:14.437Z,1009.21
2019-05-05T09:16:15.849Z,1009.23
2019-05-05T09:17:17.246Z,1009.19
2019-05-05T09:18:18.662Z,1009.27
2019-05-05T09:19:20.061Z,1009.26
2019-05-05T09:20:21.471Z,1009.26
2019-05-05T09:21:23.984Z,1009.35
2019-05-05T09:22:24.597Z,1009.33
2019-05-05T09:23:25.634Z,1009.20
2019-05-05T09:24:27.048Z,1009.26
2019-05-05T09:25:28.447Z,1009.33
2019-05-05T09:26:29.868Z,1009.46
2019-05-05T09:27:31.264Z,1009.48
2019-05-05T09:28:34.141Z,1009.48
2019-05-05T09:29:34.756Z,1009.48
2019-05-05T09:30:35.404Z,1009.44
2019-05-05T09:31:36.810Z,1009.38
2019-05-05T09:32:38.218Z,1009.39
2019-05-05T09:33:39.625Z,1009.40
2019-05-05T09:34:41.034Z,1009.41
2019-05-05T09:35:43.685Z,1009.42
2019-05-05T09:36:43.946Z,1009.37
2019-05-05T09:37:45.214Z,1009.40
2019-05-05T09:38:46.631Z,1009.46
2019-05-05T09:39:48.042Z,1009.44
2019-05-05T09:40:49.455Z,1009.44
2019-05-05T09:41:50.865Z,1009.21
2019-05-05T09:42:53.564Z,1009.16
2019-05-05T09:43:53.892Z,1009.17
2019-05-05T09:44:55.038Z,1009.21
2019-05-05T09:45:56.439Z,1009.17
2019-05-05T09:46:57.867Z,1009.13
2019-05-05T09:47:59.268Z,1009.14
2019-05-05T09:49:00.676Z,1009.21
2019-05-05T09:50:03.786Z,1009.17
2019-05-05T09:51:04.371Z,1009.24
2019-05-05T09:52:05.039Z,1009.18
2019-05-05T09:53:06.209Z,1009.18
2019-05-05T09:54:14.054Z,1009.18
2019-05-05T09:55:08.980Z,1009.25
2019-05-05T09:56:10.388Z,1009.24
2019-05-05T09:57:11.802Z,1009.26
2019-05-05T09:58:13.760Z,1009.27
2019-05-05T09:59:14.584Z,1009.22
2019-05-05T10:00:15.982Z,1009.29
2019-05-05T10:01:17.398Z,1009.26
2019-05-05T10:02:18.796Z,1009.24
2019-05-05T10:03:20.206Z,1009.25
2019-05-05T10:04:21.616Z,1009.26
2019-05-05T10:05:23.622Z,1009.46
2019-05-05T10:06:24.483Z,1009.27
2019-05-05T10:07:25.765Z,1009.38
2019-05-05T10:08:27.171Z,1009.33
2019-05-05T10:09:28.583Z,1009.38
2019-05-05T10:10:29.994Z,1009.44
2019-05-05T10:11:31.407Z,1009.38
2019-05-05T10:12:33.809Z,1009.35
2019-05-05T10:13:34.193Z,1009.30
2019-05-05T10:14:35.594Z,1009.38
2019-05-05T10:15:37.002Z,1009.25
2019-05-05T10:16:38.410Z,1009.30
2019-05-05T10:17:39.825Z,1009.22
2019-05-05T10:18:41.237Z,1009.27
2019-05-05T10:19:43.943Z,1009.32
2019-05-05T10:20:44.034Z,1009.33
2019-05-05T10:21:45.447Z,1009.33
2019-05-05T10:22:46.850Z,1009.20
2019-05-05T10:23:48.254Z,1009.24
2019-05-05T10:24:49.659Z,1009.29
2019-05-05T10:25:51.062Z,1009.28
2019-05-05T10:26:54.209Z,1009.26
2019-05-05T10:27:53.927Z,1009.28
2019-05-05T10:28:55.206Z,1009.31
2019-05-05T10:29:56.608Z,1009.32
2019-05-05T10:30:58.020Z,1009.37
2019-05-05T10:31:59.434Z,1009.30
2019-05-05T10:33:00.841Z,1009.35
2019-05-05T10:34:04.380Z,1009.32
2019-05-05T10:35:04.564Z,1009.33
2019-05-05T10:36:04.989Z,1009.30
2019-05-05T10:37:06.403Z,1009.41
2019-05-05T10:38:07.818Z,1009.41
2019-05-05T10:39:09.229Z,1009.37
2019-05-05T10:40:10.637Z,1009.35
2019-05-05T10:41:13.415Z,1009.34
2019-05-05T10:42:14.501Z,1009.33
2019-05-05T10:43:14.995Z,1009.35
2019-05-05T10:44:16.155Z,1009.35
2019-05-05T10:45:17.558Z,1009.28
2019-05-05T10:46:18.977Z,1009.34
2019-05-05T10:47:20.378Z,1009.30
2019-05-05T10:48:23.465Z,1009.30
2019-05-05T10:49:24.391Z,1009.32
2019-05-05T10:50:24.712Z,1009.34
2019-05-05T10:51:25.874Z,1009.38
2019-05-05T10:52:27.280Z,1009.40
2019-05-05T10:53:28.682Z,1009.42
2019-05-05T10:54:40.537Z,1009.46
2019-05-05T10:55:31.452Z,1009.49
2019-05-05T10:56:34.445Z,1009.45
2019-05-05T10:57:34.227Z,1009.43
2019-05-05T10:58:35.631Z,1009.37
2019-05-05T10:59:37.034Z,1009.43
2019-05-05T11:00:38.438Z,1009.53
2019-05-05T11:01:39.849Z,1009.53
2019-05-05T11:02:41.254Z,1009.49
2019-05-05T11:03:44.503Z,1009.55
2019-05-05T11:04:44.231Z,1009.52
2019-05-05T11:05:45.417Z,1009.48
2019-05-05T11:06:46.815Z,1009.47
2019-05-05T11:07:48.224Z,1009.40
2019-05-05T11:08:49.641Z,1009.29
2019-05-05T11:09:51.044Z,1009.31
2019-05-05T11:10:52.444Z,1009.30
2019-05-05T11:11:53.840Z,1009.37
2019-05-05T11:12:55.240Z,1009.37
2019-05-05T11:13:56.645Z,1009.34
2019-05-05T11:14:58.057Z,1009.32
2019-05-05T11:15:59.466Z,1009.32
2019-05-05T11:17:00.883Z,1009.39
2019-05-05T11:18:03.822Z,1009.36
2019-05-05T11:19:04.360Z,1009.32
2019-05-05T11:20:05.031Z,1009.31
2019-05-05T11:21:06.434Z,1009.35
2019-05-05T11:22:07.844Z,1009.37
2019-05-05T11:23:09.249Z,1009.36
2019-05-05T11:24:10.650Z,1009.38
2019-05-05T11:25:13.749Z,1009.36
2019-05-05T11:26:14.275Z,1009.39
2019-05-05T11:27:14.774Z,1009.39
2019-05-05T11:28:16.168Z,1009.37
2019-05-05T11:29:17.562Z,1009.39
2019-05-05T11:30:18.980Z,1009.39
2019-05-05T11:31:20.390Z,1009.43
2019-05-05T11:32:21.787Z,1009.39
2019-05-05T11:33:23.708Z,1009.40
2019-05-05T11:34:24.746Z,1009.44
2019-05-05T11:35:25.926Z,1009.46
2019-05-05T11:36:27.409Z,1009.51
2019-05-05T11:37:28.806Z,1009.47
2019-05-05T11:38:30.210Z,1009.58
2019-05-05T11:39:31.619Z,1009.62
2019-05-05T11:40:33.015Z,1009.62
2019-05-05T11:41:34.419Z,1009.64
2019-05-05T11:42:35.829Z,1009.63
2019-05-05T11:43:37.229Z,1009.59
2019-05-05T11:44:38.645Z,1009.57
2019-05-05T11:45:40.065Z,1009.58
2019-05-05T11:46:41.460Z,1009.57
2019-05-05T11:47:44.309Z,1009.59
2019-05-05T11:48:44.281Z,1009.57
2019-05-05T11:49:45.680Z,1009.61
2019-05-05T11:50:47.676Z,1009.42
2019-05-05T11:51:49.074Z,1009.37
2019-05-05T11:52:50.492Z,1009.39
2019-05-05T11:53:53.856Z,1009.39
2019-05-05T11:54:54.393Z,1009.37
2019-05-05T11:55:54.983Z,1009.35
2019-05-05T11:56:56.036Z,1009.34
2019-05-05T11:57:57.722Z,1009.34
2019-05-05T11:58:58.818Z,1009.38
2019-05-05T12:00:00.218Z,1009.41
2019-05-05T12:01:03.552Z,1009.43
2019-05-05T12:02:03.775Z,1009.39
2019-05-05T12:03:04.423Z,1009.41
2019-05-05T12:04:05.811Z,1009.41
2019-05-05T12:05:07.217Z,1009.40
2019-05-05T12:06:08.613Z,1009.43
2019-05-05T12:07:10.018Z,1009.40
2019-05-05T12:08:11.431Z,1009.49
2019-05-05T12:09:13.967Z,1009.45
2019-05-05T12:10:14.208Z,1009.44
2019-05-05T12:11:15.657Z,1009.49
2019-05-05T12:12:17.067Z,1009.50
2019-05-05T12:13:18.461Z,1009.48
2019-05-05T12:14:19.865Z,1009.49
2019-05-05T12:15:21.269Z,1009.49
2019-05-05T12:16:23.974Z,1009.51
2019-05-05T12:17:24.271Z,1009.52
2019-05-05T12:18:25.458Z,1009.50
2019-05-05T12:19:26.864Z,1009.45
2019-05-05T12:20:28.264Z,1009.40
2019-05-05T12:21:29.740Z,1009.43
2019-05-05T12:22:31.156Z,1009.36